Altamont, South Dakota
Current Conditions -  °F | °C
As of 11:53 AM on Saturday 20 Dec 2014 (Local Time) from KCNB Reporting Station
Haze Haze  
Wind Chill: 27°   Ceiling: 1000
Heat Index: 33°   Visibility: 4mi
Dew Point: 30°   Wind: 7mph
Humidity: 90%   Direction: 190°S
Pressure: 30.05"   Gusts: NA
Location:  44.7895°N, 96.7201°W
Report Text: KCNB 201753Z AUTO 19006KT 4SM BR OVC010 01/M01 A3005 RMK AO2 T00051010 10005 21003
Loading
Personal Weather Stations






























Interactive Weather Map New forecast layout! Learn more

10-Day Weather Forecast

Advertisements
Track Severe Weather on mobile